Terminal Aerodrome Forecast
Issued by NWS Charleston, WV

Current Version | Previous Version | Text Only | Print | Product List | Glossary Off
Versions: 1 2 3 4 5 6 7 8 9 10 11 12 13 14 15 16 17 18 19 20 21 22 23

000
FTUS41 KRLX 160900 AAA
TAFBKW
TAF AMD
KBKW 160904Z 1609/1706 15010KT 5SM -SHRA BKN040 BKN100
     FM161200 19010G15KT 5SM -SHRA OVC028
     FM161700 24009KT P6SM OVC013
     FM162300 27011G17KT P6SM OVC012
     FM170400 28012G20KT P6SM OVC012=

USA.gov is the U.S. government's official web portal to all federal, state and local government web resources and services.